createdAt,value
2023-03-17T00:02:47.832Z,-10972.16
2023-03-17T00:05:58.398Z,-10972.16
2023-03-17T00:09:05.825Z,-10976.91
2023-03-17T00:12:13.160Z,-10987.44
2023-03-17T00:15:20.684Z,-10974.94
2023-03-17T00:18:27.397Z,-10976.50
2023-03-17T00:21:36.939Z,-10984.06
2023-03-17T00:24:43.569Z,-10988.53
2023-03-17T00:27:50.450Z,-10988.13
2023-03-17T00:30:58.621Z,-10986.44
2023-03-17T00:34:04.904Z,-10994.44
2023-03-17T00:37:13.996Z,-10982.09
2023-03-17T00:40:23.725Z,-10989.09
2023-03-17T00:43:30.760Z,-10985.59
2023-03-17T00:46:38.872Z,-10972.16
2023-03-17T00:49:45.577Z,-10974.09
2023-03-17T00:52:56.247Z,-10976.63
2023-03-17T00:56:03.290Z,-10973.56
2023-03-17T00:59:20.630Z,-10987.56
2023-03-17T01:02:26.875Z,-10985.59
2023-03-17T01:05:33.156Z,-10985.03
2023-03-17T01:08:42.573Z,-10998.34
2023-03-17T01:11:49.399Z,-10986.03
2023-03-17T01:14:56.561Z,-10983.63
2023-03-17T01:18:03.926Z,-10977.34
2023-03-17T01:21:10.699Z,-10986.16
2023-03-17T01:24:18.704Z,-10996.69
2023-03-17T01:27:25.502Z,-10991.91
2023-03-17T01:30:34.163Z,-10992.34
2023-03-17T01:33:40.762Z,-10985.03
2023-03-17T01:36:47.640Z,-10990.94
2023-03-17T01:39:55.845Z,-10996.53
2023-03-17T01:43:17.564Z,-10998.22
2023-03-17T01:46:29.954Z,-10988.53
2023-03-17T01:49:39.740Z,-10982.38
2023-03-17T01:52:48.283Z,-10997.66
2023-03-17T01:55:58.966Z,-10997.66
2023-03-17T01:59:08.282Z,-10994.72
2023-03-17T02:02:19.957Z,-10998.50
2023-03-17T02:05:28.910Z,-10999.47
2023-03-17T02:08:35.508Z,-10999.63
2023-03-17T02:11:43.416Z,-10998.50
2023-03-17T02:14:49.629Z,-11001.03
2023-03-17T02:17:55.967Z,-10998.50
2023-03-17T02:21:31.914Z,-11000.19
2023-03-17T02:24:41.830Z,-10991.63
2023-03-17T02:27:51.357Z,-10994.72
2023-03-17T02:30:58.247Z,-10988.25
2023-03-17T02:34:04.922Z,-10983.63
2023-03-17T02:37:12.868Z,-10985.47
2023-03-17T02:40:19.278Z,-10991.22
2023-03-17T02:43:25.613Z,-10989.94
2023-03-17T02:46:31.746Z,-10992.34
2023-03-17T02:49:39.104Z,-10988.81
2023-03-17T02:52:46.896Z,-10991.91
2023-03-17T02:55:53.235Z,-10988.81
2023-03-17T02:58:59.537Z,-10992.91
2023-03-17T03:02:05.774Z,-10997.25
2023-03-17T03:05:12.059Z,-10992.34
2023-03-17T03:08:19.633Z,-10993.44
2023-03-17T03:11:26.789Z,-10994.84
2023-03-17T03:14:33.696Z,-10996.69
2023-03-17T03:17:39.911Z,-10991.50
2023-03-17T03:20:47.521Z,-10990.22
2023-03-17T03:23:55.436Z,-10984.75
2023-03-17T03:27:01.957Z,-10987.00
2023-03-17T03:30:10.623Z,-10987.28
2023-03-17T03:33:17.451Z,-10995.41
2023-03-17T03:36:23.942Z,-10999.63
2023-03-17T03:39:32.020Z,-10998.09
2023-03-17T03:42:38.553Z,-10996.41
2023-03-17T03:45:44.942Z,-10999.06
2023-03-17T03:48:51.209Z,-10995.00
2023-03-17T03:51:57.453Z,-10994.84
2023-03-17T03:55:05.602Z,-10997.53
2023-03-17T03:58:12.132Z,-10988.13
2023-03-17T04:01:19.025Z,-10979.28
2023-03-17T04:04:25.273Z,-10988.53
2023-03-17T04:07:31.602Z,-10991.50
2023-03-17T04:10:39.215Z,-10992.34
2023-03-17T04:13:45.972Z,-10990.22
2023-03-17T04:16:52.389Z,-10994.28
2023-03-17T04:20:00.222Z,-10995.84
2023-03-17T04:23:06.826Z,-10994.72
2023-03-17T04:26:14.838Z,-11003.53
2023-03-17T04:29:21.570Z,-10999.19
2023-03-17T04:32:28.143Z,-11005.22
2023-03-17T04:35:34.438Z,-10998.78
2023-03-17T04:38:40.651Z,-11004.94
2023-03-17T04:41:48.384Z,-11003.81
2023-03-17T04:44:54.708Z,-10996.41
2023-03-17T04:48:01.300Z,-10997.38
2023-03-17T04:51:09.767Z,-10990.66
2023-03-17T04:54:17.589Z,-10998.78
2023-03-17T04:57:25.348Z,-11002.97
2023-03-17T05:00:31.771Z,-11004.09
2023-03-17T05:03:38.311Z,-11009.44
2023-03-17T05:06:44.775Z,-11003.25
2023-03-17T05:09:51.978Z,-11009.16
2023-03-17T05:12:59.971Z,-11005.94
2023-03-17T05:16:07.744Z,-11012.25
2023-03-17T05:19:14.457Z,-11011.13
2023-03-17T05:22:20.914Z,-11013.38
2023-03-17T05:25:27.195Z,-11007.63
2023-03-17T05:28:34.770Z,-11014.47
2023-03-17T05:31:41.944Z,-11016.44
2023-03-17T05:34:48.670Z,-11017.00
2023-03-17T05:37:54.947Z,-11015.75
2023-03-17T05:41:02.239Z,-11020.09
2023-03-17T05:44:12.738Z,-11011.41
2023-03-17T05:47:18.886Z,-11009.72
2023-03-17T05:50:25.530Z,-11014.47
2023-03-17T05:53:32.343Z,-11020.09
2023-03-17T05:56:38.782Z,-11021.63
2023-03-17T05:59:46.676Z,-11019.81
2023-03-17T06:02:53.015Z,-11016.88
2023-03-17T06:05:59.016Z,-11021.34
2023-03-17T06:09:05.054Z,-11012.81
2023-03-17T06:12:11.528Z,-11027.53
2023-03-17T06:15:19.173Z,-11013.94
2023-03-17T06:18:25.604Z,-11028.22
2023-03-17T06:21:31.821Z,-11027.25
2023-03-17T06:24:38.475Z,-11028.50
2023-03-17T06:27:45.001Z,-11034.53
2023-03-17T06:30:53.241Z,-11037.78
2023-03-17T06:33:59.593Z,-11037.22
2023-03-17T06:37:06.346Z,-11041.56
2023-03-17T06:40:14.368Z,-11040.56
2023-03-17T06:43:22.443Z,-11041.69
2023-03-17T06:46:30.609Z,-11031.31
2023-03-17T06:49:36.998Z,-11030.47
2023-03-17T06:52:46.228Z,-11039.03
2023-03-17T06:55:53.280Z,-11050.81
2023-03-17T06:58:59.945Z,-11049.28
2023-03-17T07:02:08.479Z,-11054.19
2023-03-17T07:05:15.152Z,-11063.72
2023-03-17T07:08:22.137Z,-11059.81
2023-03-17T07:11:29.360Z,-11064.44
2023-03-17T07:14:36.971Z,-11059.25
2023-03-17T07:17:46.862Z,-11067.66
2023-03-17T07:20:54.144Z,-11060.78
2023-03-17T07:24:00.581Z,-11072.16
2023-03-17T07:27:07.170Z,-11078.19
2023-03-17T07:30:19.058Z,-11083.78
2023-03-17T07:33:26.708Z,-11073.69
2023-03-17T07:36:32.960Z,-11078.19
2023-03-17T07:39:39.948Z,-11083.78
2023-03-17T07:42:46.509Z,-11073.97
2023-03-17T07:45:53.011Z,-11089.13
2023-03-17T07:49:01.223Z,-11088.84
2023-03-17T07:52:08.531Z,-11070.19
2023-03-17T07:55:14.904Z,-11077.91
2023-03-17T07:58:21.897Z,-11094.75
2023-03-17T08:01:29.197Z,-11090.69
2023-03-17T08:04:37.755Z,-11091.53
2023-03-17T08:07:44.638Z,-11108.78
2023-03-17T08:10:51.522Z,-11112.44
2023-03-17T08:13:57.493Z,-11096.16
2023-03-17T08:17:04.992Z,-11112.72
2023-03-17T08:20:15.237Z,-11124.94
2023-03-17T08:23:26.033Z,-11129.59
2023-03-17T08:26:32.698Z,-11126.34
2023-03-17T08:29:39.315Z,-11130.13
2023-03-17T08:32:45.965Z,-11126.22
2023-03-17T08:35:54.235Z,-11125.66
2023-03-17T08:39:00.597Z,-11112.59
2023-03-17T08:42:07.395Z,-11106.56
2023-03-17T08:45:14.964Z,-11116.94
2023-03-17T08:48:21.713Z,-11143.22
2023-03-17T08:51:31.320Z,-11117.09
2023-03-17T08:54:38.020Z,-11140.53
2023-03-17T08:57:45.299Z,-11141.66
2023-03-17T09:00:52.782Z,-11172.59
2023-03-17T09:03:59.233Z,-11153.47
2023-03-17T09:07:09.611Z,-11173.16
2023-03-17T09:10:17.015Z,-11138.00
2023-03-17T09:13:23.994Z,-11130.41
2023-03-17T09:16:34.134Z,-11154.59
2023-03-17T09:19:40.599Z,-11169.50
2023-03-17T09:22:49.283Z,-11168.09
2023-03-17T09:25:56.074Z,-11131.69
2023-03-17T09:29:04.705Z,-11140.41
2023-03-17T09:32:11.399Z,-11142.94
2023-03-17T09:35:17.987Z,-11166.53
2023-03-17T09:38:26.155Z,-11152.19
2023-03-17T09:41:59.672Z,-11157.81
2023-03-17T09:45:24.833Z,-11183.53
2023-03-17T09:48:43.815Z,-11181.28
2023-03-17T09:51:51.744Z,-11197.31
2023-03-17T09:55:01.521Z,-11184.38
2023-03-17T09:58:13.134Z,-11183.25
2023-03-17T10:01:21.149Z,-11179.31
2023-03-17T10:04:28.256Z,-11174.41
2023-03-17T10:07:43.321Z,-11178.06
2023-03-17T10:10:59.153Z,-11171.59
2023-03-17T10:14:09.611Z,-11166.41
2023-03-17T10:17:19.299Z,-11146.72
2023-03-17T10:20:28.953Z,-11149.25
2023-03-17T10:23:37.417Z,-11148.97
2023-03-17T10:26:50.943Z,-11139.13
2023-03-17T10:29:58.100Z,-11148.97
2023-03-17T10:33:07.237Z,-11140.25
2023-03-17T10:36:18.133Z,-11145.88
2023-03-17T10:39:25.834Z,-11132.53
2023-03-17T10:42:35.498Z,-11139.13
2023-03-17T10:45:55.855Z,-11138.56
2023-03-17T10:49:08.199Z,-11128.88
2023-03-17T10:52:22.224Z,-11139.41
2023-03-17T10:55:32.960Z,-11147.97
2023-03-17T10:58:44.561Z,-11137.88
2023-03-17T11:01:54.202Z,-11136.59
2023-03-17T11:05:04.440Z,-11145.88
2023-03-17T11:08:18.237Z,-11152.06
2023-03-17T11:11:27.354Z,-11145.88
2023-03-17T11:14:35.485Z,-11158.53
2023-03-17T11:17:49.938Z,-11172.44
2023-03-17T11:21:01.406Z,-11153.75
2023-03-17T11:24:10.632Z,-11166.41
2023-03-17T11:27:25.772Z,-11158.25
2023-03-17T11:30:38.049Z,-11159.66
2023-03-17T11:33:55.170Z,-11172.88
2023-03-17T11:37:10.203Z,-11167.53
2023-03-17T11:40:23.277Z,-11158.81
2023-03-17T11:43:34.537Z,-11154.88
2023-03-17T11:46:48.546Z,-11162.75
2023-03-17T11:50:02.770Z,-11170.47
2023-03-17T11:53:25.161Z,-11182.00
2023-03-17T11:56:39.736Z,-11165.28
2023-03-17T11:59:53.327Z,-11187.75
2023-03-17T12:03:09.707Z,-11167.66
2023-03-17T12:06:21.014Z,-11181.28
2023-03-17T12:09:32.019Z,-11186.91
2023-03-17T12:12:44.518Z,-11170.91
2023-03-17T12:15:56.519Z,-11173.56
2023-03-17T12:19:12.574Z,-11165.84
2023-03-17T12:22:26.732Z,-11176.78
2023-03-17T12:25:37.270Z,-11181.28
2023-03-17T12:28:49.931Z,-11173.56
2023-03-17T12:32:04.714Z,-11173.44
2023-03-17T12:35:26.720Z,-11166.41
2023-03-17T12:38:38.479Z,-11159.66
2023-03-17T12:42:01.719Z,-11171.19
2023-03-17T12:45:39.192Z,-11166.69
2023-03-17T12:49:17.008Z,-11173.16
2023-03-17T12:52:38.864Z,-11154.16
2023-03-17T12:55:49.341Z,-11159.38
2023-03-17T12:59:01.214Z,-11164.16
2023-03-17T13:02:17.333Z,-11172.03
2023-03-17T13:05:33.578Z,-11163.31
2023-03-17T13:08:43.210Z,-11175.94
2023-03-17T13:11:49.660Z,-11174.25
2023-03-17T13:14:59.279Z,-11163.59
2023-03-17T13:18:51.534Z,-11157.69
2023-03-17T13:22:33.849Z,-11151.50
2023-03-17T13:25:53.941Z,-11156.69
2023-03-17T13:29:23.668Z,-11165.84
2023-03-17T13:32:39.415Z,-11148.13
2023-03-17T13:35:55.362Z,-11152.19
2023-03-17T13:39:20.833Z,-11158.38
2023-03-17T13:42:45.995Z,-11161.34
2023-03-17T13:45:53.474Z,-11156.84
2023-03-17T13:49:05.525Z,-11164.44
2023-03-17T13:52:16.500Z,-11154.31
2023-03-17T13:55:41.274Z,-11167.81
2023-03-17T13:59:07.986Z,-11154.59
2023-03-17T14:02:18.528Z,-11148.13
2023-03-17T14:05:29.485Z,-11156.00
2023-03-17T14:08:38.524Z,-11150.78
2023-03-17T14:11:47.830Z,-11148.41
2023-03-17T14:15:07.637Z,-11147.41
2023-03-17T14:18:18.534Z,-11148.41
2023-03-17T14:21:26.751Z,-11143.06
2023-03-17T14:24:35.344Z,-11154.31
2023-03-17T14:27:42.258Z,-11148.53
2023-03-17T14:30:55.616Z,-11135.06
2023-03-17T14:34:03.328Z,-11130.69
2023-03-17T14:37:12.644Z,-11133.50
2023-03-17T14:40:22.578Z,-11133.66
2023-03-17T14:43:29.108Z,-11139.41
2023-03-17T14:46:39.051Z,-11136.31
2023-03-17T14:49:45.786Z,-11139.13
2023-03-17T14:52:52.446Z,-11139.41
2023-03-17T14:55:59.089Z,-11133.38
2023-03-17T14:59:08.741Z,-11132.38
2023-03-17T15:02:25.720Z,-11132.38
2023-03-17T15:05:39.403Z,-11131.81
2023-03-17T15:08:50.902Z,-11125.38
2023-03-17T15:11:59.807Z,-11125.09
2023-03-17T15:15:13.450Z,-11125.50
2023-03-17T15:18:23.543Z,-11129.03
2023-03-17T15:21:35.393Z,-11121.00
2023-03-17T15:24:44.289Z,-11129.31
2023-03-17T15:27:50.700Z,-11126.06
2023-03-17T15:31:11.669Z,-11125.66
2023-03-17T15:34:19.664Z,-11124.81
2023-03-17T15:37:28.950Z,-11122.84
2023-03-17T15:40:35.799Z,-11121.28
2023-03-17T15:43:42.495Z,-11119.75
2023-03-17T15:46:48.879Z,-11117.78
2023-03-17T15:50:01.368Z,-11117.22
2023-03-17T15:53:07.575Z,-11115.25
2023-03-17T15:56:19.232Z,-11118.63
2023-03-17T15:59:25.510Z,-11119.19
2023-03-17T16:02:34.805Z,-11111.47
2023-03-17T16:05:43.456Z,-11111.59
2023-03-17T16:08:50.895Z,-11107.97
2023-03-17T16:11:57.259Z,-11106.28
2023-03-17T16:15:10.285Z,-11106.00
2023-03-17T16:18:32.453Z,-11107.25
2023-03-17T16:21:40.357Z,-11104.72
2023-03-17T16:24:46.437Z,-11105.16
2023-03-17T16:27:53.365Z,-11102.62
2023-03-17T16:31:02.526Z,-11104.03
2023-03-17T16:34:16.900Z,-11099.25
2023-03-17T16:37:24.399Z,-11101.22
2023-03-17T16:40:36.663Z,-11108.09
2023-03-17T16:43:45.380Z,-11106.69
2023-03-17T16:46:51.635Z,-11103.47
2023-03-17T16:49:57.933Z,-11101.91
2023-03-17T16:53:05.699Z,-11104.72
2023-03-17T16:56:17.471Z,-11104.31
2023-03-17T16:59:28.393Z,-11102.34
2023-03-17T17:02:34.707Z,-11100.94
2023-03-17T17:05:42.048Z,-11097.00
2023-03-17T17:08:51.266Z,-11100.66
2023-03-17T17:11:58.598Z,-11098.41
2023-03-17T17:15:05.361Z,-11104.59
2023-03-17T17:18:16.093Z,-11098.41
2023-03-17T17:21:22.597Z,-11097.00
2023-03-17T17:24:30.200Z,-11097.00
2023-03-17T17:27:36.658Z,-11098.41
2023-03-17T17:30:45.365Z,-11098.53
2023-03-17T17:33:51.911Z,-11096.00
2023-03-17T17:36:58.751Z,-11093.34
2023-03-17T17:40:08.277Z,-11092.94
2023-03-17T17:43:14.734Z,-11091.09
2023-03-17T17:46:23.199Z,-11089.97
2023-03-17T17:49:30.056Z,-11091.09
2023-03-17T17:52:36.256Z,-11092.78
2023-03-17T17:55:45.849Z,-11095.59
2023-03-17T17:58:52.164Z,-11091.09
2023-03-17T18:02:00.004Z,-11094.03
2023-03-17T18:05:09.060Z,-11091.09
2023-03-17T18:08:16.244Z,-11094.03
2023-03-17T18:11:23.852Z,-11090.81
2023-03-17T18:14:31.384Z,-11084.06
2023-03-17T18:17:37.958Z,-11081.69
2023-03-17T18:20:44.654Z,-11082.53
2023-03-17T18:23:55.181Z,-11083.50
2023-03-17T18:27:04.127Z,-11085.75
2023-03-17T18:30:13.383Z,-11087.72
2023-03-17T18:33:21.284Z,-11083.22
2023-03-17T18:36:29.111Z,-11087.44
2023-03-17T18:39:36.100Z,-11085.75
2023-03-17T18:42:43.625Z,-11083.50
2023-03-17T18:45:49.781Z,-11085.47
2023-03-17T18:48:55.856Z,-11085.75
2023-03-17T18:52:02.078Z,-11087.44
2023-03-17T18:55:10.221Z,-11086.31
2023-03-17T18:58:18.096Z,-11088.56
2023-03-17T19:01:24.910Z,-11087.16
2023-03-17T19:04:32.115Z,-11085.75
2023-03-17T19:07:40.272Z,-11084.22
2023-03-17T19:10:46.658Z,-11081.84
2023-03-17T19:13:54.985Z,-11083.22
2023-03-17T19:17:01.431Z,-11086.88
2023-03-17T19:20:10.156Z,-11088.00
2023-03-17T19:23:16.707Z,-11089.97
2023-03-17T19:26:22.761Z,-11086.88
2023-03-17T19:29:30.691Z,-11083.22
2023-03-17T19:32:37.305Z,-11081.69
2023-03-17T19:35:44.641Z,-11083.94
2023-03-17T19:38:51.457Z,-11082.94
2023-03-17T19:41:59.378Z,-11082.41
2023-03-17T19:45:08.434Z,-11081.84
2023-03-17T19:48:14.932Z,-11083.66
2023-03-17T19:51:21.623Z,-11084.34
2023-03-17T19:54:28.204Z,-11079.59
2023-03-17T19:57:34.495Z,-11085.19
2023-03-17T20:00:43.195Z,-11085.63
2023-03-17T20:03:49.575Z,-11081.56
2023-03-17T20:06:57.059Z,-11070.19
2023-03-17T20:10:04.305Z,-11074.13
2023-03-17T20:13:10.868Z,-11077.34
2023-03-17T20:16:18.983Z,-11077.91
2023-03-17T20:19:26.309Z,-11076.50
2023-03-17T20:22:32.654Z,-11080.44
2023-03-17T20:25:39.668Z,-11071.31
2023-03-17T20:28:46.434Z,-11072.28
2023-03-17T20:31:54.227Z,-11077.63
2023-03-17T20:35:01.016Z,-11077.47
2023-03-17T20:38:08.389Z,-11073.00
2023-03-17T20:41:17.312Z,-11072.72
2023-03-17T20:44:24.768Z,-11079.44
2023-03-17T20:47:32.288Z,-11073.69
2023-03-17T20:50:39.626Z,-11073.00
2023-03-17T20:53:47.704Z,-11076.06
2023-03-17T20:56:56.077Z,-11075.94
2023-03-17T21:00:02.531Z,-11076.22
2023-03-17T21:03:10.879Z,-11071.16
2023-03-17T21:06:17.723Z,-11067.22
2023-03-17T21:09:24.130Z,-11072.44
2023-03-17T21:12:31.849Z,-11075.38
2023-03-17T21:15:38.617Z,-11073.28
2023-03-17T21:18:46.483Z,-11074.81
2023-03-17T21:21:53.005Z,-11070.88
2023-03-17T21:24:59.104Z,-11074.13
2023-03-17T21:28:06.389Z,-11075.09
2023-03-17T21:31:15.119Z,-11072.84
2023-03-17T21:34:24.701Z,-11068.63
2023-03-17T21:37:31.418Z,-11068.91
2023-03-17T21:40:38.592Z,-11066.66
2023-03-17T21:43:46.643Z,-11063.59
2023-03-17T21:46:55.156Z,-11068.34
2023-03-17T21:50:03.871Z,-11069.75
2023-03-17T21:53:11.487Z,-11065.84
2023-03-17T21:56:18.795Z,-11062.88
2023-03-17T21:59:25.568Z,-11063.31
2023-03-17T22:02:31.887Z,-11053.19
2023-03-17T22:05:39.897Z,-11046.47
2023-03-17T22:08:48.156Z,-11049.56
2023-03-17T22:11:54.416Z,-11058.25
2023-03-17T22:15:00.784Z,-11062.88
2023-03-17T22:18:07.287Z,-11060.63
2023-03-17T22:21:15.337Z,-11060.34
2023-03-17T22:24:21.667Z,-11056.56
2023-03-17T22:27:27.915Z,-11061.47
2023-03-17T22:30:34.528Z,-11061.47
2023-03-17T22:33:41.788Z,-11059.94
2023-03-17T22:36:49.622Z,-11059.38
2023-03-17T22:39:56.156Z,-11062.19
2023-03-17T22:43:02.682Z,-11051.94
2023-03-17T22:46:09.447Z,-11038.34
2023-03-17T22:49:15.901Z,-11045.06
2023-03-17T22:52:23.493Z,-11048.84
2023-03-17T22:55:29.722Z,-11049.00
2023-03-17T22:58:36.128Z,-11052.06
2023-03-17T23:01:42.715Z,-11051.25
2023-03-17T23:04:49.289Z,-11047.31
2023-03-17T23:07:57.699Z,-11046.88
2023-03-17T23:11:07.211Z,-11047.03
2023-03-17T23:14:13.500Z,-11049.28
2023-03-17T23:17:19.783Z,-11038.75
2023-03-17T23:20:26.768Z,-11039.03
2023-03-17T23:23:35.469Z,-11031.16
2023-03-17T23:26:42.063Z,-11035.53
2023-03-17T23:29:48.166Z,-11027.53
2023-03-17T23:32:54.819Z,-11032.84
2023-03-17T23:36:01.656Z,-11033.28
2023-03-17T23:39:10.297Z,-11027.66
2023-03-17T23:42:17.095Z,-11020.66
2023-03-17T23:45:23.950Z,-11017.16
2023-03-17T23:48:30.636Z,-11018.13
2023-03-17T23:51:37.000Z,-11019.41
2023-03-17T23:54:44.576Z,-11020.38
2023-03-17T23:57:50.880Z,-11010.84
